Time;durP1;ratioP1;P1;durP2;ratioP2;P2;SDS_P1;SDS_P2;PMS_P1;PMS_P2;Temp;Humidity;BMP_temperature;BMP_pressure;BME280_temperature;BME280_humidity;BME280_pressure;Samples;Min_cycle;Max_cycle;Signal;HPM_P1;HPM_P2
2021/12/01 00:01:03;;;;;;;9.23;1.33;;;;;;;;;;5068409;28;20233;-70
2021/12/01 00:03:29;;;;;;;11.02;1.38;;;3.10;99.90;;;;;;5092334;28;20091;-70
2021/12/01 00:05:55;;;;;;;4.93;0.80;;;3.40;99.90;;;;;;5084342;28;20068;-70
2021/12/01 00:08:20;;;;;;;10.02;0.90;;;3.00;99.90;;;;;;5080229;28;20024;-70
2021/12/01 00:10:47;;;;;;;4.50;1.20;;;3.20;99.90;;;;;;4387477;28;10000722;-71
2021/12/01 00:13:15;;;;;;;14.20;1.23;;;3.20;99.90;;;;;;5076690;28;20107;-71
2021/12/01 00:15:44;;;;;;;10.77;0.82;;;3.20;99.90;;;;;;5070054;28;20028;-71
2021/12/01 00:18:10;;;;;;;5.80;1.65;;;;;;;;;;5090302;28;20390;-71
2021/12/01 00:20:37;;;;;;;14.43;1.33;;;3.20;99.90;;;;;;5090208;28;20039;-71
2021/12/01 00:23:04;;;;;;;9.50;1.48;;;3.20;99.90;;;;;;5089206;28;20036;-71
2021/12/01 00:25:32;;;;;;;11.90;1.33;;;;;;;;;;5089617;28;20024;-70
2021/12/01 00:27:58;;;;;;;14.77;1.17;;;;;;;;;;5088085;28;20047;-70
2021/12/01 00:30:25;;;;;;;5.72;1.13;;;;;;;;;;5077974;28;20067;-69
2021/12/01 00:32:53;;;;;;;7.25;1.05;;;3.10;99.90;;;;;;5088387;28;20516;-72
2021/12/01 00:35:19;;;;;;;10.68;1.17;;;3.10;99.90;;;;;;5089316;28;20553;-71
2021/12/01 00:37:45;;;;;;;8.80;1.17;;;;;;;;;;5088579;28;20032;-71
2021/12/01 00:40:12;;;;;;;11.45;1.80;;;3.10;99.90;;;;;;4730165;28;10000443;-71
2021/12/01 00:42:39;;;;;;;13.00;1.17;;;;;;;;;;5089082;28;20481;-69
2021/12/01 00:45:46;;;;;;;12.57;1.30;;;3.10;99.90;;;;;;5081720;28;20109;-70
2021/12/01 00:47:58;;;;;;;8.02;1.10;;;;;;;;;;5072211;28;20036;-70
2021/12/01 00:50:27;;;;;;;19.15;1.10;;;2.90;99.90;;;;;;5074008;28;20032;-70
2021/12/01 00:52:55;;;;;;;16.90;1.35;;;3.20;99.90;;;;;;5087770;28;20016;-70
2021/12/01 00:55:22;;;;;;;15.93;1.10;;;3.70;99.90;;;;;;5092025;28;20565;-70
2021/12/01 00:57:50;;;;;;;7.65;1.15;;;2.30;99.90;;;;;;5078184;28;20478;-68
2021/12/01 01:00:17;;;;;;;8.85;1.50;;;3.20;99.90;;;;;;5071942;28;20517;-69
2021/12/01 01:02:43;;;;;;;5.00;1.63;;;;;;;;;;5060870;28;20067;-70
2021/12/01 01:05:10;;;;;;;17.80;1.35;;;3.30;99.90;;;;;;5091538;28;20078;-70
2021/12/01 01:07:36;;;;;;;12.90;2.85;;;3.30;99.90;;;;;;5091943;28;20047;-70
2021/12/01 01:10:16;;;;;;;12.05;1.20;;;3.30;99.90;;;;;;5073896;28;20436;-68
2021/12/01 01:18:12;;;;;;;12.13;1.30;;;;;;;;;;5071619;28;19914;-70
2021/12/01 01:20:37;;;;;;;12.90;1.30;;;3.60;99.90;;;;;;5074640;28;20028;-70
2021/12/01 01:23:03;;;;;;;17.45;1.52;;;;;;;;;;5091522;28;20482;-70
2021/12/01 01:25:30;;;;;;;8.65;1.48;;;3.40;99.90;;;;;;5091270;28;20028;-70
2021/12/01 01:27:56;;;;;;;14.40;1.35;;;;;;;;;;5091896;28;20084;-70
2021/12/01 01:30:22;;;;;;;24.48;2.05;;;;;;;;;;5091339;28;20035;-70
2021/12/01 01:32:48;;;;;;;12.52;1.52;;;;;;;;;;5091705;28;20077;-70
2021/12/01 01:35:14;;;;;;;11.40;1.60;;;;;;;;;;5091146;28;20035;-70
2021/12/01 01:37:41;;;;;;;9.00;1.38;;;;;;;;;;5091639;28;20358;-69
2021/12/01 01:40:08;;;;;;;9.50;1.75;;;3.40;99.90;;;;;;5072954;28;20036;-70
2021/12/01 01:42:34;;;;;;;15.85;2.60;;;;;;;;;;5091521;28;20016;-70
2021/12/01 01:45:00;;;;;;;21.88;2.53;;;;;;;;;;5090850;28;20111;-70
2021/12/01 01:47:26;;;;;;;23.55;3.47;;;;;;;;;;5073123;28;20485;-71
2021/12/01 01:50:02;;;;;;;19.42;1.83;;;;;;;;;;5091075;28;20022;-71
2021/12/01 01:52:29;;;;;;;12.35;1.77;;;;;;;;;;5091212;28;20107;-71
2021/12/01 01:54:55;;;;;;;10.32;1.30;;;;;;;;;;5091339;28;20371;-69
2021/12/01 01:57:22;;;;;;;15.10;1.63;;;;;;;;;;5091051;28;20020;-70
2021/12/01 01:59:48;;;;;;;12.45;1.60;;;;;;;;;;5091353;28;20032;-69
2021/12/01 02:02:14;;;;;;;41.35;2.42;;;;;;;;;;5075760;28;20029;-69
2021/12/01 02:04:40;;;;;;;22.40;1.92;;;;;;;;;;5089864;28;20409;-70
2021/12/01 02:07:06;;;;;;;19.20;1.73;;;;;;;;;;5091229;28;20036;-70
2021/12/01 02:09:32;;;;;;;10.88;1.92;;;;;;;;;;5091605;28;20066;-68
2021/12/01 02:12:01;;;;;;;18.98;2.10;;;3.80;99.90;;;;;;5091016;28;20541;-70
2021/12/01 02:14:27;;;;;;;20.90;1.73;;;3.70;99.90;;;;;;5090914;28;20024;-70
2021/12/01 02:16:54;;;;;;;10.85;1.42;;;;;;;;;;5090776;28;20095;-71
2021/12/01 02:19:20;;;;;;;13.43;3.10;;;;;;;;;;5091360;28;20032;-70
2021/12/01 02:21:46;;;;;;;28.25;2.28;;;;;;;;;;5091065;28;20042;-70
2021/12/01 02:24:14;;;;;;;10.32;1.90;;;3.70;99.90;;;;;;5090895;28;20169;-70
2021/12/01 02:26:44;;;;;;;8.25;1.55;;;3.80;99.90;;;;;;5090788;28;20020;-70
2021/12/01 02:29:16;;;;;;;13.98;1.63;;;3.80;99.90;;;;;;5091841;28;20544;-71
2021/12/01 02:31:43;;;;;;;17.88;1.67;;;3.80;99.90;;;;;;5094555;28;20102;-70
2021/12/01 02:34:17;;;;;;;17.00;1.90;;;3.80;99.90;;;;;;5094976;28;20024;-70
2021/12/01 02:36:46;;;;;;;20.15;1.83;;;3.80;99.90;;;;;;5094379;28;20024;-70
2021/12/01 02:39:15;;;;;;;22.75;2.30;;;;;;;;;;5094628;28;20031;-70
2021/12/01 02:41:43;;;;;;;15.18;2.53;;;3.90;99.90;;;;;;5094601;28;20020;-70
2021/12/01 02:44:11;;;;;;;10.45;2.55;;;;;;;;;;5094716;28;20107;-70
2021/12/01 02:46:37;;;;;;;24.80;4.55;;;;;;;;;;5090803;28;20035;-70
2021/12/01 02:49:04;;;;;;;18.77;2.33;;;;;;;;;;5081620;28;20033;-70
2021/12/01 02:51:32;;;;;;;16.90;2.85;;;;;;;;;;5080702;28;20028;-68
2021/12/01 02:53:59;;;;;;;22.13;2.15;;;3.90;99.90;;;;;;5094438;28;20017;-70
2021/12/01 02:56:26;;;;;;;21.77;2.08;;;;;;;;;;5093818;28;20086;-70
2021/12/01 02:58:52;;;;;;;16.17;1.67;;;;;;;;;;5094597;28;20055;-70
2021/12/01 03:01:22;;;;;;;23.75;3.40;;;4.00;99.90;;;;;;5094072;28;20052;-70
2021/12/01 03:03:48;;;;;;;21.60;2.13;;;3.90;99.90;;;;;;5094338;28;20119;-70
2021/12/01 03:06:14;;;;;;;13.20;1.80;;;;;;;;;;5094015;28;20397;-70
2021/12/01 03:08:42;;;;;;;18.38;2.55;;;4.00;99.90;;;;;;5076468;28;20565;-70
2021/12/01 03:11:08;;;;;;;19.23;1.98;;;;;;;;;;5094145;28;20154;-71
2021/12/01 03:13:34;;;;;;;10.00;1.40;;;;;;;;;;5093113;28;20528;-71
2021/12/01 03:16:00;;;;;;;9.38;1.55;;;4.10;99.90;;;;;;5093816;28;20489;-72
2021/12/01 03:18:26;;;;;;;21.90;2.42;;;;;;;;;;5094248;28;20031;-70
2021/12/01 03:20:52;;;;;;;26.15;2.42;;;;;;;;;;5075312;28;20157;-71
2021/12/01 03:23:19;;;;;;;14.70;2.00;;;;;;;;;;5094039;28;20441;-70
2021/12/01 03:25:45;;;;;;;9.45;1.75;;;;;;;;;;5092153;28;20408;-70
2021/12/01 03:28:11;;;;;;;17.00;2.28;;;;;;;;;;5094051;28;20470;-69
2021/12/01 03:30:37;;;;;;;16.17;2.10;;;;;;;;;;5093649;28;20028;-71
2021/12/01 03:33:11;;;;;;;19.90;2.40;;;4.10;99.90;;;;;;5093783;28;20043;-66
2021/12/01 03:35:38;;;;;;;19.65;2.28;;;4.20;99.90;;;;;;5090602;28;20362;-71
2021/12/01 03:38:04;;;;;;;13.68;1.58;;;;;;;;;;5093192;28;20032;-68
2021/12/01 03:40:30;;;;;;;18.33;1.90;;;;;;;;;;5093143;28;20028;-70
2021/12/01 03:42:56;;;;;;;11.73;1.30;;;4.10;99.90;;;;;;5088463;28;20028;-70
2021/12/01 03:45:22;;;;;;;23.20;2.20;;;;;;;;;;5088148;28;20036;-70
2021/12/01 03:47:48;;;;;;;12.73;1.50;;;4.20;99.90;;;;;;5093362;28;20453;-70
2021/12/01 03:50:14;;;;;;;13.30;1.92;;;;;;;;;;5093404;28;20020;-70
2021/12/01 03:52:41;;;;;;;18.73;1.50;;;4.00;99.90;;;;;;5072187;28;20027;-70
2021/12/01 03:55:08;;;;;;;18.42;1.77;;;4.30;99.90;;;;;;5090561;28;20111;-70
2021/12/01 03:57:34;;;;;;;22.55;2.63;;;;;;;;;;5073377;28;20071;-70
2021/12/01 04:00:00;;;;;;;15.07;2.10;;;;;;;;;;5073232;28;20024;-70
2021/12/01 04:02:27;;;;;;;15.20;2.03;;;4.30;99.90;;;;;;5076739;28;20028;-70
2021/12/01 04:04:53;;;;;;;11.60;1.88;;;;;;;;;;5093128;28;20149;-70
2021/12/01 04:07:19;;;;;;;15.98;2.25;;;;;;;;;;5093314;28;20039;-70
2021/12/01 04:09:45;;;;;;;16.38;2.00;;;4.40;99.90;;;;;;5092937;28;20032;-70
2021/12/01 04:12:11;;;;;;;11.40;2.00;;;;;;;;;;5092566;28;20119;-70
2021/12/01 04:14:37;;;;;;;10.05;2.05;;;4.40;99.90;;;;;;5092917;28;20033;-70
2021/12/01 04:17:04;;;;;;;8.73;2.03;;;4.30;99.90;;;;;;5092402;28;20024;-67
2021/12/01 04:19:29;;;;;;;17.33;2.95;;;4.50;99.90;;;;;;5074856;28;20024;-70
2021/12/01 04:21:55;;;;;;;18.85;1.98;;;;;;;;;;5092702;28;20024;-70
2021/12/01 04:24:22;;;;;;;20.00;2.28;;;4.50;99.90;;;;;;5092936;28;20024;-70
2021/12/01 04:26:48;;;;;;;28.17;3.15;;;4.60;99.90;;;;;;5092200;28;20503;-70
2021/12/01 04:29:14;;;;;;;9.18;1.77;;;4.70;99.90;;;;;;5092914;28;20174;-69
2021/12/01 04:31:40;;;;;;;13.10;2.00;;;4.70;99.90;;;;;;5092340;28;20028;-70
2021/12/01 04:34:07;;;;;;;18.27;2.53;;;4.50;99.90;;;;;;5092680;28;20043;-70
2021/12/01 04:36:37;;;;;;;17.50;2.30;;;4.60;99.90;;;;;;5092385;28;20016;-70
2021/12/01 04:39:09;;;;;;;14.43;2.05;;;4.60;99.90;;;;;;5092391;28;20047;-68
2021/12/01 04:41:49;;;;;;;18.63;2.15;;;4.60;99.90;;;;;;5092511;28;20020;-69
2021/12/01 04:44:15;;;;;;;10.65;2.00;;;4.60;99.90;;;;;;5091923;28;20048;-70
2021/12/01 04:46:46;;;;;;;13.90;2.58;;;4.60;99.90;;;;;;5073771;23;20075;-72
2021/12/01 04:49:18;;;;;;;8.60;1.52;;;4.60;99.90;;;;;;5072455;28;20184;-70
2021/12/01 04:51:47;;;;;;;15.57;2.50;;;4.60;99.90;;;;;;5071357;28;20558;-75
2021/12/01 04:54:14;;;;;;;15.30;1.63;;;4.70;99.90;;;;;;5054239;28;20111;-71
2021/12/01 04:56:41;;;;;;;15.52;2.00;;;4.60;99.90;;;;;;5071390;28;20025;-72
2021/12/01 04:59:08;;;;;;;12.05;2.20;;;4.60;99.90;;;;;;5072241;28;20016;-73
2021/12/01 05:01:35;;;;;;;24.67;1.80;;;4.40;99.90;;;;;;5071993;28;20504;-70
2021/12/01 05:04:01;;;;;;;19.92;2.50;;;4.70;99.90;;;;;;5054240;28;20473;-70
2021/12/01 05:06:27;;;;;;;18.52;2.58;;;;;;;;;;5071184;28;20428;-72
2021/12/01 05:08:53;;;;;;;9.82;1.73;;;;;;;;;;5072168;28;20028;-73
2021/12/01 05:11:19;;;;;;;8.30;2.25;;;;;;;;;;5071334;28;20063;-73
2021/12/01 05:13:45;;;;;;;17.73;2.85;;;;;;;;;;5071747;28;20025;-73
2021/12/01 05:16:11;;;;;;;21.95;3.45;;;;;;;;;;5071637;28;20071;-71
2021/12/01 05:18:37;;;;;;;5.63;1.60;;;4.70;99.90;;;;;;5072050;28;20020;-71
2021/12/01 05:21:04;;;;;;;14.23;1.70;;;4.70;99.90;;;;;;5072128;28;20044;-71
2021/12/01 05:23:30;;;;;;;13.48;2.25;;;;;;;;;;5072370;28;20031;-71
2021/12/01 05:25:56;;;;;;;14.18;3.03;;;;;;;;;;5071540;28;20032;-71
2021/12/01 05:28:22;;;;;;;7.63;2.08;;;4.70;99.90;;;;;;5054180;28;20040;-70
2021/12/01 05:30:48;;;;;;;15.02;2.13;;;;;;;;;;5071896;28;20078;-71
2021/12/01 05:33:15;;;;;;;13.00;1.75;;;3.50;99.90;;;;;;5071986;28;20470;-71
2021/12/01 05:35:43;;;;;;;22.52;3.10;;;4.80;99.90;;;;;;5053539;28;20402;-69
2021/12/01 05:38:09;;;;;;;14.93;2.05;;;5.10;99.90;;;;;;5071964;28;20029;-70
2021/12/01 05:40:35;;;;;;;8.55;2.03;;;4.70;99.90;;;;;;5071632;28;20021;-69
2021/12/01 05:43:01;;;;;;;8.75;2.00;;;4.90;99.90;;;;;;5071602;28;20482;-71
2021/12/01 05:45:27;;;;;;;17.98;2.67;;;;;;;;;;5073327;28;20029;-72
2021/12/01 05:47:53;;;;;;;12.75;3.45;;;4.80;99.90;;;;;;5073564;28;20040;-72
2021/12/01 05:50:19;;;;;;;16.15;2.00;;;4.80;99.90;;;;;;5083161;28;20025;-72
2021/12/01 05:52:45;;;;;;;30.73;3.47;;;;;;;;;;5091429;28;20055;-72
2021/12/01 05:55:11;;;;;;;11.80;2.45;;;;;;;;;;5073859;28;20036;-73
2021/12/01 05:57:37;;;;;;;8.55;2.33;;;;;;;;;;5071987;28;20024;-72
2021/12/01 06:00:10;;;;;;;12.75;1.85;;;4.90;99.90;;;;;;5071313;28;20032;-72
2021/12/01 06:02:35;;;;;;;16.77;2.60;;;4.90;99.90;;;;;;5071521;28;20071;-72
2021/12/01 06:05:01;;;;;;;18.90;2.83;;;;;;;;;;5057086;28;20028;-72
2021/12/01 06:07:27;;;;;;;11.50;1.80;;;;;;;;;;5075838;28;20154;-72
2021/12/01 06:09:53;;;;;;;10.85;2.40;;;;;;;;;;5075773;28;20056;-73
2021/12/01 06:12:20;;;;;;;19.92;3.40;;;;;;;;;;5040934;28;20458;-73
2021/12/01 06:14:46;;;;;;;10.02;2.05;;;;;;;;;;5057149;28;20024;-71
2021/12/01 06:17:13;;;;;;;15.05;4.05;;;5.00;99.90;;;;;;5075030;28;20078;-72
2021/12/01 06:19:40;;;;;;;11.45;1.73;;;5.00;99.90;;;;;;5075382;28;20033;-71
2021/12/01 06:22:07;;;;;;;10.10;2.17;;;5.10;99.90;;;;;;5075995;28;20480;-72
2021/12/01 06:24:34;;;;;;;9.00;2.13;;;5.00;99.90;;;;;;5075105;28;20028;-70
2021/12/01 06:27:00;;;;;;;7.05;2.17;;;;;;;;;;5078136;28;20036;-71
2021/12/01 06:29:26;;;;;;;15.38;2.13;;;;;;;;;;5083945;28;20473;-71
2021/12/01 06:31:52;;;;;;;9.07;1.92;;;;;;;;;;5081332;28;20031;-71
2021/12/01 06:34:18;;;;;;;9.82;2.40;;;;;;;;;;5061748;28;20028;-71
2021/12/01 06:36:44;;;;;;;6.93;2.08;;;;;;;;;;5080122;28;20028;-72
2021/12/01 06:39:10;;;;;;;24.95;3.42;;;;;;;;;;5081286;28;20099;-68
2021/12/01 06:41:36;;;;;;;12.93;2.83;;;5.00;99.90;;;;;;5084592;28;20035;-69
2021/12/01 06:44:02;;;;;;;5.57;2.45;;;;;;;;;;5082096;28;20123;-70
2021/12/01 06:46:29;;;;;;;16.65;3.70;;;;;;;;;;5076723;28;20028;-70
2021/12/01 06:48:55;;;;;;;8.13;2.17;;;5.10;99.90;;;;;;5075104;28;20045;-71
2021/12/01 06:51:21;;;;;;;11.18;2.88;;;5.00;99.90;;;;;;5074373;28;20025;-71
2021/12/01 06:53:47;;;;;;;7.07;3.30;;;;;;;;;;5074578;28;20024;-71
2021/12/01 06:56:12;;;;;;;6.32;2.53;;;5.10;99.90;;;;;;5074063;28;20389;-70
2021/12/01 06:58:39;;;;;;;12.15;2.58;;;;;;;;;;5074159;28;20027;-70
2021/12/01 07:01:06;;;;;;;10.90;2.08;;;5.10;99.90;;;;;;5074005;28;20028;-69
2021/12/01 07:03:33;;;;;;;6.75;2.75;;;4.90;99.90;;;;;;5056060;28;20116;-69
2021/12/01 07:05:59;;;;;;;9.43;3.10;;;5.20;99.90;;;;;;5074215;28;20546;-69
2021/12/01 07:08:25;;;;;;;5.90;2.63;;;5.10;99.90;;;;;;5068092;28;20120;-71
2021/12/01 07:10:52;;;;;;;5.07;2.47;;;5.10;99.90;;;;;;5074566;28;20107;-69
2021/12/01 07:13:18;;;;;;;5.60;2.67;;;;;;;;;;5073578;28;20039;-69
2021/12/01 07:15:44;;;;;;;5.25;2.95;;;;;;;;;;5072706;28;20103;-70
2021/12/01 07:18:10;;;;;;;7.00;2.90;;;;;;;;;;5073496;28;20060;-71
2021/12/01 07:20:36;;;;;;;4.03;2.00;;;5.30;99.90;;;;;;5055982;28;20032;-69
2021/12/01 07:23:03;;;;;;;3.47;2.50;;;;;;;;;;5073737;28;20032;-70
2021/12/01 07:25:32;;;;;;;3.35;2.40;;;5.30;99.90;;;;;;5073082;28;20032;-71
2021/12/01 07:27:58;;;;;;;3.22;2.72;;;5.30;99.90;;;;;;4356723;28;10000803;-70
2021/12/01 07:30:25;;;;;;;4.82;2.83;;;5.40;99.90;;;;;;5051307;28;20035;-69
2021/12/01 07:32:51;;;;;;;3.72;2.63;;;;;;;;;;5044685;28;20081;-72
2021/12/01 07:35:18;;;;;;;5.75;3.60;;;5.50;99.90;;;;;;5070284;28;20040;-71
2021/12/01 07:37:44;;;;;;;4.15;2.83;;;5.50;99.90;;;;;;5051997;28;20074;-71
2021/12/01 07:40:11;;;;;;;5.97;3.03;;;5.60;99.90;;;;;;5070352;28;20154;-70
2021/12/01 07:42:37;;;;;;;5.25;2.85;;;5.60;99.90;;;;;;5069697;28;20051;-71
2021/12/01 07:45:04;;;;;;;3.78;2.70;;;5.50;99.90;;;;;;5045189;28;20085;-69
2021/12/01 07:47:31;;;;;;;6.68;3.25;;;5.70;99.90;;;;;;5070058;28;20039;-72
2021/12/01 07:49:57;;;;;;;4.72;3.08;;;;;;;;;;5070419;28;20497;-72
2021/12/01 07:52:23;;;;;;;6.55;3.13;;;;;;;;;;5052768;28;20117;-72
2021/12/01 07:54:49;;;;;;;3.65;3.05;;;;;;;;;;5070717;28;20035;-72
2021/12/01 07:57:16;;;;;;;4.93;3.65;;;5.80;99.90;;;;;;5070340;28;20029;-71
2021/12/01 07:59:42;;;;;;;5.80;3.28;;;;;;;;;;5070137;28;20086;-72
2021/12/01 08:02:08;;;;;;;4.25;3.85;;;6.10;99.90;;;;;;5070514;28;20036;-72
2021/12/01 08:04:34;;;;;;;4.35;3.83;;;;;;;;;;5051847;28;20036;-72
2021/12/01 08:07:00;;;;;;;6.55;4.72;;;6.20;99.90;;;;;;5051670;28;20078;-71
2021/12/01 08:09:26;;;;;;;4.28;3.80;;;;;;;;;;5069531;28;20504;-71
2021/12/01 08:11:53;;;;;;;4.70;4.30;;;6.00;99.90;;;;;;5069778;28;20039;-70
2021/12/01 08:14:20;;;;;;;4.65;4.25;;;6.20;99.90;;;;;;5069625;28;20039;-71
2021/12/01 08:16:46;;;;;;;6.28;4.10;;;6.20;99.90;;;;;;5069994;28;20020;-70
2021/12/01 08:19:12;;;;;;;7.60;4.63;;;;;;;;;;5070158;28;20482;-70
2021/12/01 08:21:38;;;;;;;4.53;4.13;;;6.20;99.90;;;;;;5069545;28;20095;-72
2021/12/01 08:24:04;;;;;;;8.23;4.88;;;6.60;99.90;;;;;;5051134;28;20060;-72
2021/12/01 08:26:30;;;;;;;4.22;3.92;;;6.30;99.90;;;;;;5069234;28;20024;-70
2021/12/01 08:28:56;;;;;;;4.70;4.30;;;;;;;;;;5059457;28;20028;-73
2021/12/01 08:31:23;;;;;;;3.15;2.85;;;6.50;99.90;;;;;;5069377;28;20040;-71
2021/12/01 08:33:49;;;;;;;5.00;4.22;;;;;;;;;;5069512;28;20020;-72
2021/12/01 08:36:21;;;;;;;6.63;4.00;;;6.50;99.90;;;;;;5051870;28;20478;-72
2021/12/01 08:38:47;;;;;;;4.15;3.75;;;;;;;;;;5069372;28;20017;-72
2021/12/01 08:41:13;;;;;;;4.47;3.72;;;;;;;;;;5051260;28;20107;-70
2021/12/01 08:43:39;;;;;;;3.55;3.25;;;6.50;99.90;;;;;;5051585;28;20167;-71
2021/12/01 08:46:06;;;;;;;4.72;3.65;;;6.60;99.90;;;;;;5069126;28;20035;-70
2021/12/01 08:48:34;;;;;;;3.88;3.47;;;6.50;99.90;;;;;;5061420;28;20031;-71
2021/12/01 08:51:02;;;;;;;3.88;3.58;;;;;;;;;;5058298;28;20433;-71
2021/12/01 08:53:32;;;;;;;3.05;2.85;;;6.60;99.90;;;;;;5069088;28;20043;-71
2021/12/01 08:55:59;;;;;;;3.47;3.17;;;6.70;99.90;;;;;;5049710;28;20036;-71
2021/12/01 08:58:26;;;;;;;3.28;2.97;;;;;;;;;;5070490;28;20085;-72
2021/12/01 09:00:54;;;;;;;3.13;2.70;;;;;;;;;;5069964;28;20021;-71
2021/12/01 09:03:20;;;;;;;3.55;3.22;;;;;;;;;;5076828;28;20371;-72
2021/12/01 09:05:47;;;;;;;3.40;2.55;;;6.30;99.90;;;;;;5059147;28;20025;-70
2021/12/01 09:08:19;;;;;;;3.15;1.90;;;6.90;99.90;;;;;;5078769;28;20103;-75
2021/12/01 09:10:45;;;;;;;12.77;5.72;;;6.90;99.90;;;;;;5078779;28;20036;-71
2021/12/01 09:13:12;;;;;;;2.67;2.47;;;;;;;;;;5066462;28;20028;-71
2021/12/01 09:15:38;;;;;;;2.42;1.98;;;6.80;99.90;;;;;;5068562;28;20110;-71
2021/12/01 09:18:05;;;;;;;3.35;2.03;;;6.70;99.90;;;;;;5070069;28;20056;-71
2021/12/01 09:20:31;;;;;;;1.88;1.77;;;6.90;99.90;;;;;;5053745;28;20021;-70
2021/12/01 09:22:57;;;;;;;1.58;1.48;;;;;;;;;;5069074;28;20179;-69
2021/12/01 09:25:24;;;;;;;4.00;1.70;;;6.80;99.90;;;;;;5068358;28;20025;-71
2021/12/01 09:27:50;;;;;;;2.35;2.10;;;6.90;99.90;;;;;;5047637;28;20025;-70
2021/12/01 09:30:17;;;;;;;2.35;1.73;;;7.60;99.90;;;;;;5049067;28;20032;-70
2021/12/01 09:32:43;;;;;;;1.63;1.17;;;;;;;;;;5061836;28;20088;-73
2021/12/01 09:35:10;;;;;;;1.50;1.30;;;6.80;99.90;;;;;;5068038;28;20074;-71
2021/12/01 09:37:36;;;;;;;1.83;1.40;;;;;;;;;;5067473;28;20036;-68
2021/12/01 09:40:06;;;;;;;1.92;1.40;;;6.80;99.90;;;;;;5068909;28;20035;-70
2021/12/01 09:42:32;;;;;;;2.83;1.58;;;;;;;;;;5057087;28;20363;-68
2021/12/01 09:44:58;;;;;;;1.38;1.27;;;;;;;;;;5070051;28;20074;-69
2021/12/01 09:47:24;;;;;;;1.40;1.30;;;;;;;;;;5066888;28;20052;-70
2021/12/01 09:49:51;;;;;;;1.80;1.20;;;;;;;;;;5071473;28;20037;-72
2021/12/01 09:52:18;;;;;;;1.35;1.00;;;7.00;99.90;;;;;;5071398;28;20024;-70
2021/12/01 09:54:44;;;;;;;3.45;1.60;;;7.00;99.90;;;;;;5064333;28;20025;-69
2021/12/01 09:57:13;;;;;;;3.90;1.30;;;;;;;;;;5067911;28;20123;-72
2021/12/01 09:59:41;;;;;;;2.03;1.55;;;7.10;99.90;;;;;;5052386;28;20433;-73
2021/12/01 10:02:07;;;;;;;3.53;1.45;;;;;;;;;;5070442;28;20482;-72
2021/12/01 10:04:33;;;;;;;1.92;1.10;;;;;;;;;;5061507;28;20024;-71
2021/12/01 10:07:35;;;;;;;4.50;1.23;;;7.00;99.90;;;;;;5065863;28;20050;-74
2021/12/01 10:10:08;;;;;;;3.03;1.20;;;7.50;99.90;;;;;;5024380;28;20043;-72
2021/12/01 10:13:03;;;;;;;1.73;1.08;;;7.20;99.90;;;;;;5065908;28;20432;-70
2021/12/01 10:15:31;;;;;;;1.65;1.30;;;7.30;99.90;;;;;;4691207;28;10000125;-71
2021/12/01 10:18:14;;;;;;;2.13;1.15;;;7.30;99.90;;;;;;5058754;28;20441;-71
2021/12/01 10:20:40;;;;;;;4.88;2.03;;;7.20;99.90;;;;;;5050378;28;20070;-69
2021/12/01 10:23:16;;;;;;;2.72;1.50;;;7.20;99.90;;;;;;5059941;28;20021;-71
2021/12/01 10:25:43;;;;;;;1.55;1.20;;;7.30;99.90;;;;;;5063913;28;20044;-72
2021/12/01 10:28:29;;;;;;;1.80;1.25;;;7.30;99.90;;;;;;5062073;28;20040;-71
2021/12/01 10:30:55;;;;;;;3.15;1.30;;;;;;;;;;5063738;28;20136;-72
2021/12/01 10:33:21;;;;;;;1.83;1.35;;;;;;;;;;5063287;28;20020;-73
2021/12/01 10:35:47;;;;;;;1.88;1.35;;;;;;;;;;5060854;28;20056;-74
2021/12/01 10:38:24;;;;;;;2.63;1.52;;;7.60;99.90;;;;;;5063315;28;20025;-69
2021/12/01 10:41:00;;;;;;;2.08;1.40;;;7.60;99.90;;;;;;5033400;28;20861;-67
2021/12/01 10:43:52;;;;;;;2.25;1.88;;;7.60;99.90;;;;;;5056492;28;20039;-69
2021/12/01 10:46:18;;;;;;;1.52;1.30;;;7.50;99.90;;;;;;5060201;28;20040;-72
2021/12/01 10:49:02;;;;;;;3.15;1.67;;;7.50;99.90;;;;;;5064055;28;20065;-71
2021/12/01 10:53:57;;;;;;;1.73;1.25;;;7.40;99.90;;;;;;5085338;28;20576;-73
2021/12/01 10:56:23;;;;;;;1.30;1.17;;;;;;;;;;5087541;28;20016;-72
2021/12/01 10:58:49;;;;;;;2.45;1.60;;;;;;;;;;5088595;28;20020;-72
2021/12/01 11:01:22;;;;;;;1.73;1.33;;;7.50;99.90;;;;;;5089554;28;20465;-73
2021/12/01 11:03:50;;;;;;;1.98;1.25;;;;;;;;;;5090318;28;20080;-71
2021/12/01 11:06:20;;;;;;;2.42;1.40;;;7.40;99.90;;;;;;5087432;28;20051;-72
2021/12/01 11:09:01;;;;;;;1.80;1.48;;;7.20;99.90;;;;;;5074021;28;20497;-75
2021/12/01 11:11:43;;;;;;;1.85;1.65;;;7.30;99.90;;;;;;5090392;28;20071;-73
2021/12/01 11:14:12;;;;;;;2.00;1.58;;;7.20;99.90;;;;;;5089469;28;20477;-72
2021/12/01 11:16:39;;;;;;;2.30;1.58;;;7.20;99.90;;;;;;5089993;28;20028;-72
2021/12/01 11:19:05;;;;;;;1.83;1.65;;;7.10;99.90;;;;;;5070804;28;20101;-73
2021/12/01 11:21:31;;;;;;;2.10;1.33;;;;;;;;;;5079594;28;20056;-72
2021/12/01 11:24:11;;;;;;;2.33;1.30;;;7.20;99.90;;;;;;5088922;28;20477;-72
2021/12/01 11:26:41;;;;;;;1.30;1.20;;;7.30;99.90;;;;;;5074268;28;20046;-74
2021/12/01 11:29:09;;;;;;;1.90;1.30;;;7.30;99.90;;;;;;5096641;28;20028;-73
2021/12/01 11:31:35;;;;;;;2.95;1.42;;;;;;;;;;5088706;28;20550;-72
2021/12/01 11:34:04;;;;;;;2.20;1.40;;;7.30;99.90;;;;;;5086340;28;20034;-74
2021/12/01 11:36:42;;;;;;;1.75;1.15;;;7.20;99.90;;;;;;5088376;28;20024;-75
2021/12/01 11:39:11;;;;;;;3.40;2.45;;;7.30;99.90;;;;;;5091942;28;20020;-74
2021/12/01 11:41:42;;;;;;;3.97;1.50;;;7.30;99.90;;;;;;5089274;28;20028;-73
2021/12/01 11:44:08;;;;;;;2.95;1.50;;;;;;;;;;5090248;28;20430;-70
2021/12/01 11:46:34;;;;;;;1.60;1.20;;;;;;;;;;5088223;28;20103;-72
2021/12/01 11:49:08;;;;;;;1.17;0.93;;;7.60;99.90;;;;;;5089440;28;20063;-73
2021/12/01 11:51:37;;;;;;;1.20;1.10;;;7.40;99.90;;;;;;5090473;28;20103;-71
2021/12/01 11:54:16;;;;;;;4.88;1.33;;;8.80;99.90;;;;;;5096692;28;20185;-71
2021/12/01 11:57:02;;;;;;;1.75;1.00;;;7.40;99.90;;;;;;5100249;28;20016;-75
2021/12/01 11:59:32;;;;;;;1.88;1.30;;;7.50;99.90;;;;;;5091502;28;20096;-72
2021/12/01 12:02:02;;;;;;;7.95;2.10;;;7.50;99.90;;;;;;5091857;28;20099;-73
2021/12/01 12:04:38;;;;;;;1.73;1.00;;;7.60;99.90;;;;;;5090913;28;20305;-71
2021/12/01 12:07:10;;;;;;;1.10;0.90;;;7.60;99.90;;;;;;5092885;28;20023;-73
2021/12/01 12:09:37;;;;;;;1.40;1.20;;;;;;;;;;5095422;28;20078;-72
2021/12/01 12:12:13;;;;;;;1.85;0.90;;;7.60;99.90;;;;;;5091881;28;20119;-73
2021/12/01 12:14:51;;;;;;;1.25;1.10;;;7.60;99.90;;;;;;5109670;28;20074;-71
2021/12/01 12:17:20;;;;;;;2.15;1.40;;;7.60;99.90;;;;;;5113134;28;20376;-74
2021/12/01 12:19:48;;;;;;;1.25;1.00;;;7.60;99.90;;;;;;5111843;28;20024;-72
2021/12/01 12:22:33;;;;;;;2.75;0.98;;;7.70;99.90;;;;;;5111502;28;20491;-70
2021/12/01 12:24:59;;;;;;;2.47;1.07;;;;;;;;;;5113041;28;20072;-70
2021/12/01 12:27:36;;;;;;;1.15;0.93;;;7.70;99.90;;;;;;5113616;28;20108;-70
2021/12/01 12:30:07;;;;;;;1.30;0.77;;;7.80;99.90;;;;;;5113450;28;20441;-70
2021/12/01 12:32:34;;;;;;;1.98;1.10;;;7.70;99.90;;;;;;5112979;28;20019;-72
2021/12/01 12:35:07;;;;;;;1.42;0.98;;;8.30;99.90;;;;;;5110690;28;20461;-71
2021/12/01 12:37:35;;;;;;;3.47;0.93;;;7.50;99.90;;;;;;5112468;28;20103;-71
2021/12/01 12:40:03;;;;;;;2.05;0.90;;;7.70;99.90;;;;;;5112468;28;20024;-73
2021/12/01 12:42:29;;;;;;;1.77;0.85;;;;;;;;;;5112422;28;20024;-70
2021/12/01 12:44:57;;;;;;;1.48;0.73;;;7.70;99.90;;;;;;5112258;28;20024;-68
2021/12/01 12:47:23;;;;;;;1.00;0.80;;;;;;;;;;5112271;28;20038;-70
2021/12/01 12:50:01;;;;;;;1.00;0.70;;;7.80;99.90;;;;;;5112542;28;20160;-70
2021/12/01 12:52:27;;;;;;;0.80;0.60;;;;;;;;;;5103140;28;20471;-70
2021/12/01 12:55:00;;;;;;;1.27;0.85;;;7.80;99.90;;;;;;5070700;28;20047;-70
2021/12/01 12:57:52;;;;;;;1.15;0.75;;;7.90;99.90;;;;;;5072033;28;20051;-69
2021/12/01 13:00:22;;;;;;;1.33;0.60;;;7.80;99.90;;;;;;5070806;28;20390;-71
2021/12/01 13:02:50;;;;;;;1.45;0.70;;;7.80;99.90;;;;;;5071805;28;20032;-68
2021/12/01 13:05:29;;;;;;;1.77;1.00;;;7.90;99.90;;;;;;5071553;28;20082;-71
2021/12/01 13:07:56;;;;;;;1.25;1.00;;;7.80;99.90;;;;;;5080547;28;20038;-70
2021/12/01 13:10:22;;;;;;;1.00;0.70;;;;;;;;;;5096518;28;20517;-70
2021/12/01 13:13:05;;;;;;;0.70;0.57;;;8.00;99.90;;;;;;5090973;28;20438;-71
2021/12/01 13:15:39;;;;;;;1.98;1.00;;;8.00;99.90;;;;;;5090817;28;20028;-71
2021/12/01 13:18:11;;;;;;;1.10;0.60;;;8.00;99.90;;;;;;5086062;28;20379;-71
2021/12/01 13:20:51;;;;;;;1.60;0.60;;;8.00;99.90;;;;;;4383668;28;10000730;-71
2021/12/01 13:23:17;;;;;;;4.35;0.63;;;;;;;;;;5088720;28;20065;-72
2021/12/01 13:26:17;;;;;;;1.30;0.63;;;8.10;99.90;;;;;;5087328;28;20024;-71
2021/12/01 13:28:55;;;;;;;1.15;0.73;;;8.10;99.90;;;;;;5069959;28;20351;-70
2021/12/01 13:31:25;;;;;;;3.60;0.90;;;8.00;99.90;;;;;;5084931;28;20031;-71
2021/12/01 13:34:14;;;;;;;1.02;0.50;;;8.10;99.90;;;;;;5084579;28;20048;-71
2021/12/01 13:36:46;;;;;;;0.65;0.50;;;7.90;99.90;;;;;;5082276;28;20506;-72
2021/12/01 13:39:25;;;;;;;2.40;0.60;;;8.10;99.90;;;;;;5086916;28;20244;-72
2021/12/01 13:41:57;;;;;;;1.25;0.60;;;7.90;99.90;;;;;;5073366;28;20035;-71
2021/12/01 13:44:25;;;;;;;7.47;0.63;;;8.00;99.90;;;;;;5089005;28;20512;-70
2021/12/01 13:47:12;;;;;;;1.05;0.73;;;8.00;99.90;;;;;;5083663;28;20035;-70